createdAt,value
2022-09-23T00:01:19.698Z,2.80
2022-09-23T00:03:47.296Z,2.83
2022-09-23T00:06:15.242Z,2.90
2022-09-23T00:08:42.377Z,2.70
2022-09-23T00:11:10.303Z,2.43
2022-09-23T00:13:39.394Z,2.33
2022-09-23T00:16:07.209Z,3.03
2022-09-23T00:18:34.310Z,2.50
2022-09-23T00:21:03.639Z,2.50
2022-09-23T00:23:30.744Z,3.73
2022-09-23T00:25:58.125Z,2.70
2022-09-23T00:28:25.275Z,2.90
2022-09-23T00:30:53.781Z,2.50
2022-09-23T00:33:20.940Z,2.87
2022-09-23T00:35:48.009Z,2.50
2022-09-23T00:38:15.089Z,2.60
2022-09-23T00:40:43.351Z,2.80
2022-09-23T00:43:11.905Z,2.87
2022-09-23T00:45:39.531Z,2.63
2022-09-23T00:48:14.548Z,2.87
2022-09-23T00:50:44.234Z,3.80
2022-09-23T00:53:12.281Z,2.87
2022-09-23T00:55:40.768Z,2.80
2022-09-23T00:58:09.225Z,3.07
2022-09-23T01:00:36.336Z,2.53
2022-09-23T01:03:03.817Z,3.00
2022-09-23T01:05:32.562Z,2.50
2022-09-23T01:08:01.426Z,2.80
2022-09-23T01:10:31.328Z,2.47
2022-09-23T01:13:08.456Z,3.00
2022-09-23T01:15:39.377Z,3.00
2022-09-23T01:18:09.305Z,2.93
2022-09-23T01:20:49.466Z,2.90
2022-09-23T01:23:29.165Z,2.80
2022-09-23T01:26:02.468Z,2.70
2022-09-23T01:28:36.317Z,3.03
2022-09-23T01:31:06.046Z,2.70
2022-09-23T01:33:36.237Z,3.20
2022-09-23T01:36:10.467Z,3.13
2022-09-23T01:38:42.437Z,2.60
2022-09-23T01:41:24.932Z,3.13
2022-09-23T01:43:55.734Z,3.60
2022-09-23T01:46:27.741Z,3.20
2022-09-23T01:48:57.154Z,2.83
2022-09-23T01:51:25.999Z,3.30
2022-09-23T01:53:54.998Z,3.00
2022-09-23T01:56:24.587Z,3.23
2022-09-23T01:58:53.439Z,3.10
2022-09-23T02:01:24.399Z,3.10
2022-09-23T02:03:56.146Z,2.97
2022-09-23T02:06:26.455Z,3.03
2022-09-23T02:08:55.795Z,3.17
2022-09-23T02:11:23.598Z,2.57
2022-09-23T02:13:54.276Z,3.10
2022-09-23T02:16:25.470Z,2.97
2022-09-23T02:18:56.341Z,3.10
2022-09-23T02:21:24.970Z,2.83
2022-09-23T02:23:53.342Z,3.07
2022-09-23T02:26:22.207Z,2.90
2022-09-23T02:28:52.012Z,2.90
2022-09-23T02:31:22.293Z,3.07
2022-09-23T02:33:54.811Z,3.20
2022-09-23T02:36:26.918Z,2.77
2022-09-23T02:38:56.855Z,2.83
2022-09-23T02:41:26.344Z,3.90
2022-09-23T02:43:56.541Z,2.73
2022-09-23T02:46:23.955Z,2.70
2022-09-23T02:48:53.332Z,3.00
2022-09-23T02:51:20.456Z,3.27
2022-09-23T02:53:49.041Z,3.03
2022-09-23T02:56:17.180Z,3.30
2022-09-23T02:58:44.506Z,3.07
2022-09-23T03:01:17.222Z,2.90
2022-09-23T03:03:47.471Z,3.10
2022-09-23T03:06:22.178Z,2.83
2022-09-23T03:08:53.619Z,3.17
2022-09-23T03:11:21.092Z,4.13
2022-09-23T03:13:52.780Z,3.13
2022-09-23T03:16:25.240Z,2.63
2022-09-23T03:18:54.022Z,2.57
2022-09-23T03:21:24.501Z,2.87
2022-09-23T03:23:54.149Z,3.97
2022-09-23T03:26:22.857Z,3.13
2022-09-23T03:28:50.401Z,4.43
2022-09-23T03:31:17.959Z,3.90
2022-09-23T03:33:48.334Z,2.97
2022-09-23T03:36:16.855Z,3.53
2022-09-23T03:38:45.546Z,3.20
2022-09-23T03:41:15.291Z,2.83
2022-09-23T03:43:42.436Z,3.20
2022-09-23T03:46:09.554Z,3.03
2022-09-23T03:48:36.764Z,3.27
2022-09-23T03:51:09.349Z,3.53
2022-09-23T03:53:36.437Z,2.90
2022-09-23T03:56:03.536Z,3.20
2022-09-23T03:58:31.985Z,3.40
2022-09-23T04:00:59.117Z,2.70
2022-09-23T04:03:26.227Z,3.50
2022-09-23T04:05:53.333Z,3.17
2022-09-23T04:08:20.408Z,3.53
2022-09-23T04:10:49.796Z,3.77
2022-09-23T04:13:18.860Z,3.63
2022-09-23T04:15:50.281Z,3.03
2022-09-23T04:18:17.379Z,3.40
2022-09-23T04:20:44.484Z,3.50
2022-09-23T04:23:11.572Z,2.87
2022-09-23T04:25:44.397Z,3.83
2022-09-23T04:28:11.485Z,3.07
2022-09-23T04:30:39.611Z,4.10
2022-09-23T04:33:08.085Z,3.60
2022-09-23T04:35:39.921Z,3.17
2022-09-23T04:38:07.364Z,3.40
2022-09-23T04:40:34.632Z,4.10
2022-09-23T04:43:01.916Z,4.30
2022-09-23T04:45:29.018Z,3.70
2022-09-23T04:47:56.149Z,3.90
2022-09-23T04:50:24.592Z,3.53
2022-09-23T04:52:51.986Z,3.40
2022-09-23T04:55:19.211Z,3.70
2022-09-23T04:57:46.283Z,3.13
2022-09-23T05:00:13.805Z,2.93
2022-09-23T05:02:42.987Z,3.60
2022-09-23T05:05:10.079Z,3.80
2022-09-23T05:07:38.514Z,3.50
2022-09-23T05:10:06.045Z,4.30
2022-09-23T05:12:33.304Z,3.30
2022-09-23T05:15:00.409Z,3.40
2022-09-23T05:17:27.533Z,3.70
2022-09-23T05:19:54.680Z,3.30
2022-09-23T05:22:21.762Z,4.20
2022-09-23T05:24:50.168Z,4.13
2022-09-23T05:27:17.235Z,3.93
2022-09-23T05:29:44.289Z,4.10
2022-09-23T05:32:11.386Z,3.70
2022-09-23T05:34:38.594Z,4.40
2022-09-23T05:37:05.699Z,4.57
2022-09-23T05:39:32.797Z,4.10
2022-09-23T05:42:01.246Z,4.03
2022-09-23T05:44:28.327Z,4.10
2022-09-23T05:46:55.563Z,3.90
2022-09-23T05:49:37.634Z,3.60
2022-09-23T05:52:09.861Z,3.33
2022-09-23T05:54:37.048Z,3.83
2022-09-23T05:57:05.524Z,3.07
2022-09-23T05:59:32.664Z,3.93
2022-09-23T06:01:59.812Z,3.80
2022-09-23T06:04:26.943Z,3.50
2022-09-23T06:06:54.079Z,4.00
2022-09-23T06:09:21.189Z,2.83
2022-09-23T06:11:48.302Z,3.40
2022-09-23T06:14:16.876Z,3.40
2022-09-23T06:16:43.988Z,3.33
2022-09-23T06:19:11.071Z,4.00
2022-09-23T06:21:39.116Z,3.90
2022-09-23T06:24:07.195Z,3.23
2022-09-23T06:26:34.494Z,2.90
2022-09-23T06:29:01.952Z,4.17
2022-09-23T06:31:30.810Z,3.23
2022-09-23T06:34:07.470Z,3.60
2022-09-23T06:36:43.960Z,3.00
2022-09-23T06:39:12.434Z,3.13
2022-09-23T06:41:39.566Z,3.40
2022-09-23T06:44:12.069Z,3.20
2022-09-23T06:46:40.622Z,4.00
2022-09-23T06:49:07.736Z,3.07
2022-09-23T06:51:34.877Z,3.20
2022-09-23T06:54:02.018Z,3.47
2022-09-23T06:56:29.181Z,3.33
2022-09-23T06:58:56.282Z,3.20
2022-09-23T07:01:23.400Z,2.67
2022-09-23T07:03:51.932Z,3.60
2022-09-23T07:06:19.039Z,3.70
2022-09-23T07:08:47.265Z,3.37
2022-09-23T07:11:14.772Z,3.43
2022-09-23T07:13:42.443Z,3.60
2022-09-23T07:16:10.506Z,3.37
2022-09-23T07:18:37.879Z,3.80
2022-09-23T07:21:07.285Z,4.30
2022-09-23T07:23:34.597Z,3.50
2022-09-23T07:26:01.680Z,3.53
2022-09-23T07:28:28.783Z,2.67
2022-09-23T07:31:00.425Z,3.40
2022-09-23T07:33:32.527Z,3.60
2022-09-23T07:36:00.036Z,3.20
2022-09-23T07:38:28.513Z,3.73
2022-09-23T07:40:55.635Z,3.40
2022-09-23T07:43:22.790Z,3.70
2022-09-23T07:45:49.921Z,3.60
2022-09-23T07:48:17.031Z,3.60
2022-09-23T07:50:44.147Z,3.30
2022-09-23T07:53:11.268Z,3.20
2022-09-23T07:55:39.714Z,4.23
2022-09-23T07:58:06.933Z,3.77
2022-09-23T08:00:34.065Z,3.77
2022-09-23T08:03:01.183Z,3.63
2022-09-23T08:05:28.320Z,3.57
2022-09-23T08:07:55.397Z,3.97
2022-09-23T08:10:22.656Z,3.67
2022-09-23T08:12:51.127Z,5.67
2022-09-23T08:15:18.230Z,4.40
2022-09-23T08:17:45.316Z,4.77
2022-09-23T08:20:12.395Z,4.70
2022-09-23T08:22:39.479Z,5.83
2022-09-23T08:25:09.734Z,4.70
2022-09-23T08:27:37.377Z,5.20
2022-09-23T08:30:06.584Z,4.03
2022-09-23T08:32:33.691Z,4.87
2022-09-23T08:35:00.779Z,4.50
2022-09-23T08:37:27.871Z,4.27
2022-09-23T08:39:54.982Z,4.80
2022-09-23T08:42:26.938Z,3.73
2022-09-23T08:44:55.778Z,3.50
2022-09-23T08:47:26.967Z,3.27
2022-09-23T08:49:57.689Z,3.90
2022-09-23T08:52:28.505Z,4.77
2022-09-23T08:54:55.765Z,3.73
2022-09-23T08:57:27.920Z,4.07
2022-09-23T08:59:55.139Z,3.80
2022-09-23T09:02:22.933Z,3.87
2022-09-23T09:04:53.300Z,4.07
2022-09-23T09:07:38.062Z,4.30
2022-09-23T09:10:06.938Z,3.70
2022-09-23T09:12:38.419Z,3.53
2022-09-23T09:15:06.579Z,3.90
2022-09-23T09:17:36.049Z,3.63
2022-09-23T09:20:08.286Z,3.93
2022-09-23T09:22:42.742Z,3.80
2022-09-23T09:25:18.588Z,3.33
2022-09-23T09:27:45.918Z,3.30
2022-09-23T09:30:13.401Z,3.60
2022-09-23T09:32:43.476Z,3.77
2022-09-23T09:35:18.753Z,3.10
2022-09-23T09:37:47.127Z,3.50
2022-09-23T09:40:14.857Z,3.80
2022-09-23T09:42:42.758Z,3.60
2022-09-23T09:45:13.123Z,3.87
2022-09-23T09:47:44.348Z,4.03
2022-09-23T09:50:13.693Z,4.40
2022-09-23T09:52:44.316Z,3.60
2022-09-23T09:55:25.234Z,3.30
2022-09-23T09:57:53.989Z,3.57
2022-09-23T10:00:35.195Z,3.77
2022-09-23T10:03:03.498Z,3.50
2022-09-23T10:05:34.226Z,3.50
2022-09-23T10:08:15.615Z,3.60
2022-09-23T10:10:50.825Z,3.80
2022-09-23T10:13:20.304Z,3.10
2022-09-23T10:15:47.380Z,3.63
2022-09-23T10:18:18.786Z,3.23
2022-09-23T10:20:48.481Z,3.30
2022-09-23T10:23:19.152Z,2.90
2022-09-23T10:25:56.187Z,3.03
2022-09-23T10:28:47.279Z,3.43
2022-09-23T10:31:15.654Z,3.23
2022-09-23T10:33:47.170Z,3.33
2022-09-23T10:36:16.910Z,3.27
2022-09-23T10:38:44.111Z,3.73
2022-09-23T10:41:17.835Z,3.57
2022-09-23T10:43:51.284Z,3.47
2022-09-23T10:46:19.818Z,3.40
2022-09-23T10:48:54.825Z,3.27
2022-09-23T10:51:27.681Z,3.30
2022-09-23T10:53:57.741Z,3.07
2022-09-23T10:56:31.080Z,3.17
2022-09-23T10:59:03.417Z,3.03
2022-09-23T11:01:36.600Z,3.63
2022-09-23T11:04:19.043Z,3.20
2022-09-23T11:06:54.025Z,3.30
2022-09-23T11:09:29.485Z,3.00
2022-09-23T11:12:03.286Z,2.93
2022-09-23T11:14:41.643Z,3.13
2022-09-23T11:17:15.580Z,3.00
2022-09-23T11:19:53.348Z,3.00
2022-09-23T11:22:29.924Z,3.40
2022-09-23T11:25:02.982Z,2.60
2022-09-23T11:27:35.178Z,3.30
2022-09-23T11:30:06.106Z,4.10
2022-09-23T11:32:43.207Z,3.50
2022-09-23T11:35:14.394Z,3.27
2022-09-23T11:37:43.811Z,3.50
2022-09-23T11:40:15.758Z,4.00
2022-09-23T11:42:47.654Z,4.60
2022-09-23T11:45:16.519Z,3.90
2022-09-23T11:47:46.883Z,2.53
2022-09-23T11:50:17.224Z,3.30
2022-09-23T11:52:47.970Z,2.90
2022-09-23T11:55:22.516Z,3.07
2022-09-23T11:57:51.672Z,2.30
2022-09-23T12:00:19.727Z,3.00
2022-09-23T12:03:05.021Z,3.03
2022-09-23T12:05:35.186Z,3.10
2022-09-23T12:08:07.749Z,2.80
2022-09-23T12:10:41.518Z,3.20
2022-09-23T12:13:12.416Z,2.80
2022-09-23T12:15:46.163Z,2.63
2022-09-23T12:18:26.584Z,2.60
2022-09-23T12:21:01.872Z,2.70
2022-09-23T12:23:44.724Z,2.50
2022-09-23T12:26:15.280Z,2.83
2022-09-23T12:28:44.360Z,2.67
2022-09-23T12:31:12.906Z,3.00
2022-09-23T12:33:40.144Z,2.60
2022-09-23T12:36:07.824Z,2.80
2022-09-23T12:38:36.935Z,2.60
2022-09-23T12:41:19.375Z,2.70
2022-09-23T12:43:51.167Z,2.30
2022-09-23T12:46:19.359Z,2.90
2022-09-23T12:49:00.206Z,2.77
2022-09-23T12:51:27.881Z,2.77
2022-09-23T12:54:22.144Z,2.40
2022-09-23T12:57:03.230Z,2.87
2022-09-23T12:59:31.691Z,2.97
2022-09-23T13:02:10.811Z,3.53
2022-09-23T13:04:44.324Z,3.27
2022-09-23T13:07:14.945Z,2.60
2022-09-23T13:09:43.288Z,2.60
2022-09-23T13:12:16.349Z,3.30
2022-09-23T13:14:44.908Z,3.33
2022-09-23T13:17:22.597Z,3.10
2022-09-23T13:19:57.827Z,3.07
2022-09-23T13:22:40.655Z,3.10
2022-09-23T13:25:11.512Z,3.00
2022-09-23T13:27:43.949Z,3.03
2022-09-23T13:30:22.338Z,3.30
2022-09-23T13:33:00.250Z,3.00
2022-09-23T13:35:31.028Z,3.23
2022-09-23T13:37:58.164Z,3.23
2022-09-23T13:40:26.087Z,2.53
2022-09-23T13:42:57.021Z,3.40
2022-09-23T13:45:24.922Z,2.90
2022-09-23T13:47:53.162Z,2.70
2022-09-23T13:50:21.941Z,2.60
2022-09-23T13:52:51.913Z,2.80
2022-09-23T13:55:25.939Z,2.40
2022-09-23T13:57:59.028Z,2.57
2022-09-23T14:00:26.572Z,3.07
2022-09-23T14:02:53.791Z,3.03
2022-09-23T14:05:22.353Z,3.10
2022-09-23T14:07:49.906Z,2.93
2022-09-23T14:10:19.367Z,3.87
2022-09-23T14:12:47.885Z,2.80
2022-09-23T14:15:16.765Z,3.00
2022-09-23T14:17:46.174Z,3.03
2022-09-23T14:20:14.393Z,2.40
2022-09-23T14:22:41.470Z,3.00
2022-09-23T14:25:13.055Z,1.70
2022-09-23T14:27:41.081Z,1.73
2022-09-23T14:30:14.211Z,1.97
2022-09-23T14:32:42.899Z,1.80
2022-09-23T14:35:18.831Z,1.67
2022-09-23T14:37:47.328Z,2.30
2022-09-23T14:40:16.029Z,1.80
2022-09-23T14:42:45.224Z,1.73
2022-09-23T14:45:14.983Z,1.80
2022-09-23T14:47:46.267Z,1.90
2022-09-23T14:50:18.971Z,2.03
2022-09-23T14:52:49.065Z,1.87
2022-09-23T14:55:16.718Z,1.73
2022-09-23T14:57:44.025Z,1.70
2022-09-23T15:00:16.696Z,1.93
2022-09-23T15:02:46.418Z,1.60
2022-09-23T15:05:15.624Z,1.53
2022-09-23T15:07:43.559Z,1.63
2022-09-23T15:10:16.232Z,2.13
2022-09-23T15:12:43.847Z,1.83
2022-09-23T15:15:12.926Z,1.60
2022-09-23T15:17:40.364Z,1.73
2022-09-23T15:20:17.893Z,1.73
2022-09-23T15:22:45.426Z,2.00
2022-09-23T15:25:16.906Z,1.90
2022-09-23T15:27:55.745Z,1.50
2022-09-23T15:30:23.060Z,2.03
2022-09-23T15:32:50.178Z,1.40
2022-09-23T15:35:19.524Z,1.73
2022-09-23T15:37:47.103Z,1.60
2022-09-23T15:40:24.778Z,1.60
2022-09-23T15:42:53.131Z,1.63
2022-09-23T15:45:21.552Z,1.70
2022-09-23T15:47:49.069Z,1.80
2022-09-23T15:50:16.287Z,1.87
2022-09-23T15:52:44.754Z,1.70
2022-09-23T15:55:15.528Z,1.50
2022-09-23T15:57:42.614Z,1.93
2022-09-23T16:00:12.448Z,2.07
2022-09-23T16:02:40.014Z,1.43
2022-09-23T16:05:07.464Z,1.67
2022-09-23T16:07:34.548Z,1.50
2022-09-23T16:10:03.062Z,1.70
2022-09-23T16:12:30.230Z,1.87
2022-09-23T16:14:57.321Z,1.90
2022-09-23T16:17:24.416Z,1.60
2022-09-23T16:19:51.517Z,1.63
2022-09-23T16:22:18.624Z,1.47
2022-09-23T16:24:45.704Z,1.70
2022-09-23T16:27:18.989Z,1.80
2022-09-23T16:29:46.087Z,1.50
2022-09-23T16:32:13.173Z,1.93
2022-09-23T16:34:40.299Z,1.50
2022-09-23T16:37:09.850Z,2.00
2022-09-23T16:39:36.950Z,2.27
2022-09-23T16:42:04.066Z,1.90
2022-09-23T16:44:32.527Z,1.80
2022-09-23T16:46:59.619Z,1.73
2022-09-23T16:49:26.851Z,1.83
2022-09-23T16:51:53.979Z,2.20
2022-09-23T16:54:21.054Z,2.03
2022-09-23T16:56:48.150Z,1.90
2022-09-23T16:59:16.065Z,1.87
2022-09-23T17:01:44.653Z,2.37
2022-09-23T17:04:11.847Z,2.40
2022-09-23T17:06:42.979Z,2.73
2022-09-23T17:09:10.156Z,1.93
2022-09-23T17:11:37.330Z,1.80
2022-09-23T17:14:04.594Z,1.97
2022-09-23T17:16:33.551Z,2.10
2022-09-23T17:19:05.674Z,2.57
2022-09-23T17:21:32.842Z,2.73
2022-09-23T17:23:59.962Z,2.10
2022-09-23T17:26:27.470Z,2.50
2022-09-23T17:28:55.378Z,2.60
2022-09-23T17:31:23.163Z,1.87
2022-09-23T17:33:50.670Z,2.10
2022-09-23T17:36:19.788Z,2.00
2022-09-23T17:38:48.207Z,2.60
2022-09-23T17:41:16.100Z,2.40
2022-09-23T17:43:43.169Z,5.27
2022-09-23T17:46:11.274Z,3.80
2022-09-23T17:48:39.198Z,4.90
2022-09-23T17:51:07.308Z,4.90
2022-09-23T17:53:36.959Z,3.80
2022-09-23T17:56:05.201Z,4.17
2022-09-23T17:58:33.633Z,3.50
2022-09-23T18:01:00.912Z,3.10
2022-09-23T18:03:29.255Z,4.10
2022-09-23T18:06:05.674Z,2.80
2022-09-23T18:08:32.789Z,3.27
2022-09-23T18:11:01.261Z,2.80
2022-09-23T18:13:28.351Z,3.47
2022-09-23T18:15:55.480Z,2.87
2022-09-23T18:18:22.606Z,2.90
2022-09-23T18:20:49.708Z,2.80
2022-09-23T18:23:16.822Z,2.80
2022-09-23T18:25:43.904Z,3.00
2022-09-23T18:28:12.339Z,2.70
2022-09-23T18:30:39.481Z,2.83
2022-09-23T18:33:06.595Z,3.40
2022-09-23T18:35:33.703Z,3.30
2022-09-23T18:38:00.839Z,4.67
2022-09-23T18:40:27.988Z,3.87
2022-09-23T18:42:55.121Z,4.30
2022-09-23T18:45:23.566Z,3.90
2022-09-23T18:47:50.697Z,4.33
2022-09-23T18:50:17.768Z,4.80
2022-09-23T18:52:44.870Z,3.93
2022-09-23T18:55:12.679Z,4.23
2022-09-23T18:57:39.809Z,4.40
2022-09-23T19:00:07.535Z,4.30
2022-09-23T19:02:36.001Z,4.20
2022-09-23T19:05:03.084Z,4.17
2022-09-23T19:07:30.182Z,4.00
2022-09-23T19:09:57.285Z,4.60
2022-09-23T19:12:24.409Z,4.23
2022-09-23T19:14:51.478Z,3.90
2022-09-23T19:17:18.580Z,3.47
2022-09-23T19:19:47.007Z,3.60
2022-09-23T19:22:14.105Z,3.00
2022-09-23T19:24:41.173Z,3.80
2022-09-23T19:27:08.288Z,4.60
2022-09-23T19:29:35.370Z,5.43
2022-09-23T19:32:02.890Z,5.90
2022-09-23T19:34:30.017Z,6.00
2022-09-23T19:36:58.872Z,5.00
2022-09-23T19:39:26.837Z,6.50
2022-09-23T19:41:54.333Z,6.03
2022-09-23T19:44:21.459Z,5.70
2022-09-23T19:46:51.938Z,5.77
2022-09-23T19:49:22.988Z,4.90
2022-09-23T19:51:50.059Z,5.23
2022-09-23T19:54:18.527Z,5.07
2022-09-23T19:56:45.632Z,4.73
2022-09-23T19:59:17.785Z,4.27
2022-09-23T20:01:45.891Z,5.63
2022-09-23T20:04:13.081Z,5.90
2022-09-23T20:06:40.253Z,5.53
2022-09-23T20:09:07.351Z,5.27
2022-09-23T20:11:35.824Z,5.23
2022-09-23T20:14:03.570Z,5.77
2022-09-23T20:16:32.532Z,6.27
2022-09-23T20:19:00.131Z,6.60
2022-09-23T20:21:27.638Z,5.63
2022-09-23T20:23:54.739Z,6.63
2022-09-23T20:26:21.840Z,5.70
2022-09-23T20:28:50.687Z,6.10
2022-09-23T20:31:18.664Z,5.70
2022-09-23T20:33:45.762Z,6.47
2022-09-23T20:36:13.130Z,6.27
2022-09-23T20:38:40.515Z,6.30
2022-09-23T20:41:08.169Z,6.33
2022-09-23T20:43:35.278Z,7.10
2022-09-23T20:46:04.754Z,7.57
2022-09-23T20:48:31.928Z,7.60
2022-09-23T20:51:01.943Z,7.07
2022-09-23T20:53:29.063Z,6.97
2022-09-23T20:55:57.369Z,6.50
2022-09-23T20:58:28.365Z,6.50
2022-09-23T21:01:00.420Z,6.00
2022-09-23T21:03:29.833Z,5.93
2022-09-23T21:05:56.904Z,5.27
2022-09-23T21:08:24.000Z,5.47
2022-09-23T21:10:53.959Z,6.23
2022-09-23T21:13:21.134Z,5.90
2022-09-23T21:15:48.246Z,6.70
2022-09-23T21:18:19.206Z,5.50
2022-09-23T21:20:56.310Z,5.70
2022-09-23T21:23:26.836Z,5.40
2022-09-23T21:25:53.961Z,6.23
2022-09-23T21:28:21.047Z,7.10
2022-09-23T21:30:51.793Z,7.10
2022-09-23T21:33:19.219Z,5.60
2022-09-23T21:35:46.316Z,5.90
2022-09-23T21:38:14.742Z,5.83
2022-09-23T21:40:41.882Z,6.57
2022-09-23T21:43:09.009Z,6.20
2022-09-23T21:45:36.080Z,6.67
2022-09-23T21:48:03.222Z,6.77
2022-09-23T21:50:30.332Z,5.80
2022-09-23T21:52:57.434Z,7.20
2022-09-23T21:55:25.910Z,7.00
2022-09-23T21:57:52.979Z,6.70
2022-09-23T22:00:20.168Z,6.80
2022-09-23T22:02:47.266Z,7.70
2022-09-23T22:05:14.338Z,7.13
2022-09-23T22:07:41.446Z,7.90
2022-09-23T22:10:08.827Z,7.87
2022-09-23T22:12:37.289Z,7.77
2022-09-23T22:15:04.721Z,8.33
2022-09-23T22:17:31.815Z,7.63
2022-09-23T22:19:58.963Z,9.40
2022-09-23T22:22:26.086Z,8.93
2022-09-23T22:24:53.184Z,8.93
2022-09-23T22:27:20.656Z,8.77
2022-09-23T22:29:49.215Z,8.27
2022-09-23T22:32:16.328Z,7.47
2022-09-23T22:34:52.167Z,6.97
2022-09-23T22:37:20.542Z,8.00
2022-09-23T22:39:47.622Z,8.50
2022-09-23T22:42:14.685Z,7.43
2022-09-23T22:44:41.941Z,8.03
2022-09-23T22:47:10.974Z,7.60
2022-09-23T22:49:38.069Z,8.07
2022-09-23T22:52:05.711Z,8.37
2022-09-23T22:54:34.086Z,9.00
2022-09-23T22:57:01.606Z,7.80
2022-09-23T22:59:28.726Z,7.37
2022-09-23T23:01:55.954Z,7.67
2022-09-23T23:04:24.441Z,7.90
2022-09-23T23:06:51.532Z,7.17
2022-09-23T23:09:19.288Z,7.90
2022-09-23T23:11:47.694Z,7.63
2022-09-23T23:14:16.032Z,7.37
2022-09-23T23:16:43.510Z,6.60
2022-09-23T23:19:11.431Z,7.20
2022-09-23T23:21:40.781Z,6.80
2022-09-23T23:24:07.966Z,7.00
2022-09-23T23:26:35.171Z,6.70
2022-09-23T23:29:02.362Z,7.60
2022-09-23T23:31:29.892Z,6.50
2022-09-23T23:33:57.362Z,8.33
2022-09-23T23:36:24.505Z,7.40
2022-09-23T23:38:53.000Z,7.20
2022-09-23T23:41:21.083Z,8.27
2022-09-23T23:43:48.749Z,7.47
2022-09-23T23:46:16.179Z,7.53
2022-09-23T23:48:43.330Z,8.30
2022-09-23T23:51:11.446Z,7.87
2022-09-23T23:53:39.418Z,8.07
2022-09-23T23:56:09.217Z,7.93
2022-09-23T23:58:37.454Z,9.67
